createdAt,value
2023-06-23T00:01:01.512Z,24.29
2023-06-23T00:03:29.067Z,24.27
2023-06-23T00:05:56.636Z,24.27
2023-06-23T00:08:24.408Z,24.25
2023-06-23T00:10:52.754Z,24.23
2023-06-23T00:13:21.166Z,24.23
2023-06-23T00:15:48.700Z,24.20
2023-06-23T00:18:16.860Z,24.17
2023-06-23T00:20:44.404Z,24.14
2023-06-23T00:23:12.041Z,24.10
2023-06-23T00:25:39.449Z,24.06
2023-06-23T00:28:08.139Z,24.00
2023-06-23T00:30:35.799Z,23.94
2023-06-23T00:33:04.656Z,23.89
2023-06-23T00:35:32.343Z,23.86
2023-06-23T00:38:00.623Z,23.83
2023-06-23T00:40:28.163Z,23.81
2023-06-23T00:42:55.937Z,23.78
2023-06-23T00:45:25.459Z,23.81
2023-06-23T00:47:53.045Z,23.84
2023-06-23T00:50:21.597Z,23.83
2023-06-23T00:52:51.983Z,23.87
2023-06-23T00:55:24.017Z,23.89
2023-06-23T00:57:52.267Z,23.91
2023-06-23T01:00:20.524Z,23.94
2023-06-23T01:02:56.226Z,23.95
2023-06-23T01:05:26.185Z,23.98
2023-06-23T01:07:59.069Z,24.00
2023-06-23T01:11:07.728Z,24.02
2023-06-23T01:13:39.045Z,23.99
2023-06-23T01:16:23.207Z,23.99
2023-06-23T01:18:54.685Z,24.01
2023-06-23T01:21:40.113Z,24.06
2023-06-23T01:24:32.434Z,24.10
2023-06-23T01:27:22.591Z,24.14
2023-06-23T01:29:51.520Z,24.14
2023-06-23T01:32:20.655Z,24.13
2023-06-23T01:34:51.016Z,24.17
2023-06-23T01:37:29.619Z,24.19
2023-06-23T01:40:04.297Z,24.17
2023-06-23T01:42:33.244Z,24.19
2023-06-23T01:45:00.921Z,24.21
2023-06-23T01:47:31.944Z,24.21
2023-06-23T01:49:59.713Z,24.21
2023-06-23T01:52:27.238Z,24.23
2023-06-23T01:54:54.778Z,24.26
2023-06-23T01:57:22.392Z,24.30
2023-06-23T01:59:49.948Z,24.26
2023-06-23T02:02:17.553Z,24.25
2023-06-23T02:04:45.965Z,24.23
2023-06-23T02:07:14.384Z,24.22
2023-06-23T02:09:44.789Z,24.17
2023-06-23T02:12:12.362Z,24.21
2023-06-23T02:14:40.306Z,24.23
2023-06-23T02:17:11.517Z,24.24
2023-06-23T02:19:46.997Z,24.28
2023-06-23T02:22:17.516Z,24.31
2023-06-23T02:24:46.638Z,24.33
2023-06-23T02:27:14.164Z,24.35
2023-06-23T02:29:42.031Z,24.29
2023-06-23T02:32:09.857Z,24.28
2023-06-23T02:34:39.366Z,24.32
2023-06-23T02:37:10.446Z,24.33
2023-06-23T02:39:43.140Z,24.36
2023-06-23T02:42:11.420Z,24.41
2023-06-23T02:44:40.202Z,24.50
2023-06-23T02:47:12.139Z,24.53
2023-06-23T02:49:39.698Z,24.56
2023-06-23T02:52:08.471Z,24.60
2023-06-23T02:54:39.284Z,24.63
2023-06-23T02:57:06.925Z,24.67
2023-06-23T02:59:34.478Z,24.71
2023-06-23T03:02:02.223Z,24.71
2023-06-23T03:04:31.816Z,24.75
2023-06-23T03:06:59.523Z,24.80
2023-06-23T03:09:27.798Z,24.83
2023-06-23T03:11:55.230Z,24.87
2023-06-23T03:14:22.936Z,24.91
2023-06-23T03:17:02.247Z,24.93
2023-06-23T03:19:45.014Z,25.00
2023-06-23T03:22:19.994Z,25.13
2023-06-23T03:24:53.834Z,25.15
2023-06-23T03:27:22.498Z,25.18
2023-06-23T03:29:55.440Z,25.14
2023-06-23T03:32:26.819Z,25.18
2023-06-23T03:34:57.741Z,25.28
2023-06-23T03:37:26.253Z,25.32
2023-06-23T03:40:00.339Z,25.44
2023-06-23T03:42:28.103Z,25.50
2023-06-23T03:44:56.112Z,25.58
2023-06-23T03:47:26.004Z,25.66
2023-06-23T03:49:56.298Z,25.71
2023-06-23T03:52:23.837Z,25.64
2023-06-23T03:54:51.607Z,25.71
2023-06-23T03:57:21.304Z,25.74
2023-06-23T03:59:49.893Z,25.85
2023-06-23T04:02:18.786Z,25.91
2023-06-23T04:04:46.511Z,25.88
2023-06-23T04:07:14.023Z,25.94
2023-06-23T04:09:42.499Z,25.95
2023-06-23T04:12:11.348Z,26.04
2023-06-23T04:14:38.957Z,26.19
2023-06-23T04:17:09.930Z,26.26
2023-06-23T04:19:37.970Z,26.25
2023-06-23T04:22:06.573Z,26.20
2023-06-23T04:24:34.188Z,26.17
2023-06-23T04:27:01.665Z,26.16
2023-06-23T04:29:29.408Z,26.25
2023-06-23T04:31:57.045Z,26.34
2023-06-23T04:34:24.754Z,26.42
2023-06-23T04:37:03.692Z,26.39
2023-06-23T04:39:37.245Z,26.35
2023-06-23T04:42:05.825Z,26.43
2023-06-23T04:44:34.076Z,26.52
2023-06-23T04:47:03.155Z,26.70
2023-06-23T04:49:30.782Z,26.93
2023-06-23T04:51:58.756Z,27.02
2023-06-23T04:54:35.697Z,27.05
2023-06-23T04:57:03.900Z,27.05
2023-06-23T04:59:33.942Z,27.10
2023-06-23T05:02:01.939Z,27.17
2023-06-23T05:04:31.344Z,27.18
2023-06-23T05:06:58.790Z,27.28
2023-06-23T05:09:26.448Z,27.33
2023-06-23T05:11:54.224Z,27.36
2023-06-23T05:14:21.710Z,27.42
2023-06-23T05:16:49.229Z,27.55
2023-06-23T05:19:16.730Z,27.63
2023-06-23T05:21:44.411Z,27.63
2023-06-23T05:24:13.583Z,27.66
2023-06-23T05:26:42.856Z,27.64
2023-06-23T05:29:11.282Z,27.74
2023-06-23T05:31:40.938Z,27.67
2023-06-23T05:34:09.814Z,27.73
2023-06-23T05:36:38.743Z,27.79
2023-06-23T05:39:06.421Z,27.87
2023-06-23T05:41:33.993Z,27.87
2023-06-23T05:44:01.617Z,27.96
2023-06-23T05:46:30.471Z,28.03
2023-06-23T05:49:03.568Z,28.02
